Syoanmaru No15 — JD3862 — position and weather

sailwx.info

Track history (hours):
 
Tides and Currents Weather Stations Pressure Air Temp Water Temp Dewpoint Dewpoint Depression Visibility Wind Speed Wind Dir Waves Ship Positions

Syoanmaru No15

Last reported at 2017-Nov-17 06:05 UTC. Time now 2017-Nov-17 21:19 UTC.
Position N 35°34' E 139°54'.

Length 60 m; draft 4 m.

Type: Tanker. MMSI: 431006926.

Date/timePositionNaut miles runAvg speedWind from/ knotsBaromVisibWave heightAir tempDewpointWater temp
2017-Nov-17 06:05N 35°34' E 139°54'3 9.0
2017-Nov-17 05:42N 35°31' E 139°53'211.8
2017-Nov-17 05:30N 35°29' E 139°52'612.1
2017-Nov-17 05:00N 35°25' E 139°47'612.2
2017-Nov-17 04:30N 35°19' E 139°44'611.8
2017-Nov-17 04:00N 35°13' E 139°47'612.1
2017-Nov-17 03:30N 35°07' E 139°47'611.6
2017-Nov-17 03:00N 35°02' E 139°47'3 4.1
2017-Nov-17 02:22N 35°01' E 139°50'0 0.0
2017-Nov-17 01:58N 35°01' E 139°50'0 0.0
2017-Nov-17 01:28N 35°01' E 139°50'0 0.1
2017-Nov-17 00:58N 35°01' E 139°50'0 0.0
2017-Nov-17 00:28N 35°01' E 139°50'0 0.0
2017-Nov-16 23:58N 35°01' E 139°50'0 0.0
2017-Nov-16 22:52N 35°01' E 139°50'0 0.0
2017-Nov-16 22:16N 35°01' E 139°50'0 0.0
2017-Nov-16 21:52N 35°01' E 139°50'0 0.1
2017-Nov-16 21:28N 35°01' E 139°50'0 0.1
2017-Nov-16 20:40N 35°01' E 139°50'0 0.0
2017-Nov-16 20:28N 35°01' E 139°50'0 0.0
2017-Nov-16 19:58N 35°01' E 139°50'0 0.0
2017-Nov-16 19:22N 35°01' E 139°50'0 0.0
2017-Nov-16 18:58N 35°01' E 139°50'0 0.0
2017-Nov-16 18:28N 35°01' E 139°50'0 0.0
2017-Nov-16 17:58N 35°01' E 139°50'0 0.0
2017-Nov-16 17:16N 35°01' E 139°50'0 0.0
2017-Nov-16 16:52N 35°01' E 139°50'0 0.0
2017-Nov-16 16:28N 35°01' E 139°50'0 0.0
2017-Nov-16 15:58N 35°01' E 139°50'0 0.0
2017-Nov-16 15:28N 35°01' E 139°50'0 0.0
2017-Nov-16 14:40N 35°01' E 139°50'0 0.1
2017-Nov-16 14:10N 35°01' E 139°50'0 0.0
2017-Nov-16 13:58N 35°01' E 139°50'0 0.1
2017-Nov-16 13:16N 35°01' E 139°50'0 0.0
2017-Nov-16 11:52N 35°01' E 139°50'0 0.0
2017-Nov-16 11:16N 35°01' E 139°50'0 1.9
2017-Nov-16 11:00N 35°01' E 139°50'510.7
2017-Nov-16 10:30N 34°60' E 139°43'611.0
2017-Nov-16 09:58N 34°57' E 139°37'  
2017-Nov-12 20:56N 35°05' E 138°41'29 6.5
2017-Nov-12 16:23N 34°46' E 139°09'1911.0
2017-Nov-12 14:39N 34°56' E 139°28'210.7
2017-Nov-12 14:30N 34°57' E 139°30'510.9
2017-Nov-12 14:01N 34°58' E 139°36'611.6
2017-Nov-12 13:31N 34°60' E 139°43'611.7
2017-Nov-12 13:00N 35°01' E 139°50'0 0.4
2017-Nov-12 12:19N 35°01' E 139°50'0 0.0
2017-Nov-12 11:55N 35°01' E 139°50'0 0.0
2017-Nov-12 11:26N 35°01' E 139°50'0 0.0
2017-Nov-12 10:56N 35°01' E 139°50'0 0.0
2017-Nov-12 10:19N 35°01' E 139°50'0 0.0
2017-Nov-12 09:55N 35°01' E 139°50'0 0.0
2017-Nov-12 09:25N 35°01' E 139°50'0 0.0
2017-Nov-12 07:50N 35°01' E 139°50'0 0.0
2017-Nov-12 07:26N 35°01' E 139°50'0 0.0
2017-Nov-12 06:56N 35°01' E 139°50'0 0.0
2017-Nov-12 06:26N 35°01' E 139°50'0 0.1
2017-Nov-12 05:49N 35°01' E 139°50'0 0.1
2017-Nov-12 05:25N 35°01' E 139°50'0 0.0
2017-Nov-12 04:55N 35°01' E 139°50'0 0.1
2017-Nov-12 04:25N 35°01' E 139°50'0 0.0
2017-Nov-12 03:55N 35°01' E 139°50'0 0.0
2017-Nov-12 03:25N 35°01' E 139°50'0 0.0
2017-Nov-12 02:55N 35°01' E 139°50'0 0.0
2017-Nov-12 02:25N 35°01' E 139°50'0 0.0
2017-Nov-12 01:49N 35°01' E 139°50'0 0.0
2017-Nov-12 01:20N 35°01' E 139°50'0 0.0
2017-Nov-12 00:49N 35°01' E 139°50'0 0.0
2017-Nov-12 00:26N 35°01' E 139°50'0 0.0
2017-Nov-11 23:49N 35°01' E 139°50'0 0.0
2017-Nov-11 23:25N 35°01' E 139°50'0 0.1
2017-Nov-11 22:49N 35°01' E 139°51'0 0.1
2017-Nov-11 22:25N 35°01' E 139°50'0 0.1
2017-Nov-11 21:43N 35°01' E 139°51'0 0.0
2017-Nov-11 21:26N 35°01' E 139°51'0 0.0
2017-Nov-11 20:56N 35°01' E 139°51'0 0.0
2017-Nov-11 20:25N 35°01' E 139°51'0 0.0
2017-Nov-11 19:49N 35°01' E 139°51'0 0.0
2017-Nov-11 19:19N 35°01' E 139°51'0 0.0
2017-Nov-11 18:55N 35°01' E 139°51'0 0.0
2017-Nov-11 18:25N 35°01' E 139°51'0 0.0
2017-Nov-11 17:55N 35°01' E 139°51'0 0.0
2017-Nov-11 17:25N 35°01' E 139°51'0 0.1
2017-Nov-11 16:55N 35°01' E 139°50'0 0.1
2017-Nov-11 16:19N 35°01' E 139°51'0 0.1
2017-Nov-11 15:55N 35°01' E 139°50'0 0.1
2017-Nov-11 15:25N 35°01' E 139°51'0 0.0
2017-Nov-11 14:55N 35°01' E 139°51'0 0.0
2017-Nov-11 14:25N 35°01' E 139°51'0 0.1
2017-Nov-11 13:55N 35°01' E 139°50'0 0.0
2017-Nov-11 13:19N 35°01' E 139°50'0 0.0
2017-Nov-11 12:55N 35°01' E 139°50'0 0.0
2017-Nov-11 12:25N 35°01' E 139°50'0 0.0
2017-Nov-11 11:55N 35°01' E 139°50'0 0.0
2017-Nov-11 11:07N 35°01' E 139°50'0 0.0
2017-Nov-11 10:55N 35°01' E 139°50'0 0.0
2017-Nov-11 10:25N 35°01' E 139°50'0 0.0
2017-Nov-11 09:55N 35°01' E 139°50'0 0.0
2017-Nov-11 09:25N 35°01' E 139°50'0 0.0
2017-Nov-11 08:55N 35°01' E 139°50'0 0.5
2017-Nov-11 08:30N 35°01' E 139°50'4 8.9
2017-Nov-11 08:00N 35°04' E 139°47'612.1
2017-Nov-11 07:30N 35°10' E 139°47'611.7
2017-Nov-11 07:00N 35°16' E 139°46'611.8
2017-Nov-11 06:30N 35°21' E 139°42'612.1
2017-Nov-11 06:00N 35°27' E 139°43'3 6.4
2017-Nov-11 05:30N 35°30' E 139°43'0 0.0
2017-Nov-10 10:09N 35°30' E 139°43'0 0.0
2017-Nov-10 03:30N 35°30' E 139°43'1 1.8
2017-Nov-10 03:01N 35°29' E 139°43'4 7.3
2017-Nov-10 02:30N 35°26' E 139°44'2 4.5
2017-Nov-10 01:59N 35°24' E 139°45'0 0.0
2017-Nov-10 01:29N 35°24' E 139°45'0 0.0
2017-Nov-10 00:59N 35°24' E 139°45'0 0.0
2017-Nov-10 00:29N 35°24' E 139°45'0 0.0
2017-Nov-09 23:59N 35°24' E 139°45'0 0.0
2017-Nov-09 23:28N 35°24' E 139°45'0 0.0
2017-Nov-09 22:59N 35°24' E 139°45'0 0.0
2017-Nov-09 22:28N 35°24' E 139°45'0 0.0
2017-Nov-09 21:58N 35°24' E 139°45'0 0.0
2017-Nov-09 21:26N 35°24' E 139°45'0 0.0
2017-Nov-09 20:58N 35°24' E 139°45'0 0.0
2017-Nov-09 20:29N 35°24' E 139°45'0 0.0
2017-Nov-09 19:58N 35°24' E 139°45'0 0.0
2017-Nov-09 19:28N 35°24' E 139°45'0 0.0
2017-Nov-09 18:59N 35°24' E 139°45'0 0.0
2017-Nov-09 18:29N 35°24' E 139°45'0 0.0
2017-Nov-09 17:58N 35°24' E 139°45'0 0.0
2017-Nov-09 17:29N 35°24' E 139°45'0 0.0
2017-Nov-09 16:59N 35°24' E 139°45'0 0.0
2017-Nov-09 16:29N 35°24' E 139°45'0 0.0
2017-Nov-09 15:58N 35°24' E 139°45'0 0.0
2017-Nov-09 15:28N 35°24' E 139°45'0 0.0
2017-Nov-09 14:58N 35°24' E 139°45'0 0.0
2017-Nov-09 14:28N 35°24' E 139°45'0 0.0
2017-Nov-09 13:58N 35°24' E 139°45'0 0.0
2017-Nov-09 13:28N 35°24' E 139°45'0 0.0
2017-Nov-09 12:59N 35°24' E 139°45'0 0.0
2017-Nov-09 12:28N 35°24' E 139°45'0 0.0
2017-Nov-09 11:58N 35°24' E 139°45'0 0.0
2017-Nov-09 11:28N 35°24' E 139°45'0 0.0
2017-Nov-09 10:59N 35°24' E 139°45'0 0.0
2017-Nov-09 10:25N 35°24' E 139°45'0 0.0
2017-Nov-09 09:58N 35°24' E 139°45'0 0.0
2017-Nov-09 09:29N 35°24' E 139°45'0 0.0
2017-Nov-09 08:58N 35°24' E 139°45'0 0.0
2017-Nov-09 08:28N 35°24' E 139°45'0 0.0
2017-Nov-09 08:00N 35°24' E 139°45'0 0.0
2017-Nov-09 07:30N 35°24' E 139°45'0 0.1
2017-Nov-09 07:00N 35°24' E 139°45'1 2.3
2017-Nov-09 06:30N 35°23' E 139°44'5 9.1
2017-Nov-09 06:01N 35°24' E 139°38'0 0.0
2017-Nov-09 05:29N 35°24' E 139°38'0 0.0
2017-Nov-09 04:56N 35°24' E 139°38'0 0.1
2017-Nov-09 04:31N 35°24' E 139°38'2 3.4
2017-Nov-09 04:01N 35°24' E 139°40'2 3.6
2017-Nov-09 03:30N 35°22' E 139°40'0 0.0
2017-Nov-09 03:00N 35°22' E 139°40'0 0.0
2017-Nov-09 02:30N 35°22' E 139°40'0 0.0
2017-Nov-09 02:00N 35°22' E 139°40'0 0.0
2017-Nov-09 01:30N 35°22' E 139°40'0 0.0
2017-Nov-09 01:00N 35°22' E 139°40'0 0.0
2017-Nov-09 00:30N 35°22' E 139°40'0 0.0
2017-Nov-08 23:58N 35°22' E 139°40'0 0.0
2017-Nov-08 23:28N 35°22' E 139°40'0 0.0
2017-Nov-08 22:55N 35°22' E 139°40'0 0.0
2017-Nov-08 22:28N 35°22' E 139°40'0 0.0
2017-Nov-08 21:58N 35°22' E 139°40'0 0.0
2017-Nov-08 21:28N 35°22' E 139°40'0 0.0
2017-Nov-08 20:58N 35°22' E 139°40'0 0.0
2017-Nov-08 20:28N 35°22' E 139°40'0 0.0
2017-Nov-08 19:58N 35°22' E 139°40'0 0.1
2017-Nov-08 19:28N 35°22' E 139°40'0 0.1
2017-Nov-08 18:58N 35°22' E 139°40'0 0.0
2017-Nov-08 18:25N 35°22' E 139°40'0 0.0
2017-Nov-08 17:58N 35°22' E 139°40'0 0.0
2017-Nov-08 17:28N 35°22' E 139°40'0 0.1
2017-Nov-08 16:58N 35°22' E 139°40'0 0.0
2017-Nov-08 16:28N 35°22' E 139°40'0 0.0
2017-Nov-08 15:58N 35°22' E 139°40'0 0.0
2017-Nov-08 15:28N 35°22' E 139°40'0 0.0
2017-Nov-08 14:58N 35°22' E 139°40'0 0.0
2017-Nov-08 14:28N 35°22' E 139°40'0 0.0
2017-Nov-08 13:58N 35°22' E 139°40'0 0.0
2017-Nov-08 13:28N 35°22' E 139°40'0 0.0
2017-Nov-08 12:58N 35°22' E 139°40'0 0.1
2017-Nov-08 12:28N 35°22' E 139°40'0 0.0
2017-Nov-08 11:55N 35°22' E 139°40'0 0.0
2017-Nov-08 11:28N 35°22' E 139°40'0 0.0
2017-Nov-08 10:58N 35°22' E 139°40'0 0.0
2017-Nov-08 10:25N 35°22' E 139°40'0 0.1
2017-Nov-08 09:58N 35°22' E 139°40'0 0.0
2017-Nov-08 09:28N 35°22' E 139°40'0 0.0
2017-Nov-08 08:58N 35°22' E 139°40'0 0.0
2017-Nov-08 08:25N 35°22' E 139°40'0 0.0
2017-Nov-08 07:58N 35°22' E 139°40'0 0.0
2017-Nov-08 07:28N 35°22' E 139°40'0 0.0
2017-Nov-08 06:58N 35°22' E 139°40'0 0.0
2017-Nov-08 06:28N 35°22' E 139°40'0 0.0
2017-Nov-08 05:58N 35°22' E 139°40'0 0.0
2017-Nov-08 05:28N 35°22' E 139°40'0 0.0
2017-Nov-08 04:58N 35°22' E 139°40'0 0.0
2017-Nov-08 04:28N 35°22' E 139°40'0 0.0
2017-Nov-08 03:55N 35°22' E 139°40'0 0.0
2017-Nov-08 03:28N 35°22' E 139°40'0 0.1
2017-Nov-08 02:58N 35°22' E 139°40'0 0.0
2017-Nov-08 02:28N 35°22' E 139°40'0 0.0
2017-Nov-08 01:58N 35°22' E 139°40'0 0.0
2017-Nov-08 01:28N 35°22' E 139°40'0 0.0
2017-Nov-08 00:58N 35°22' E 139°40'0 0.0
2017-Nov-08 00:28N 35°22' E 139°40'0 0.0
2017-Nov-07 23:58N 35°22' E 139°40'0 0.0
2017-Nov-07 23:28N 35°22' E 139°40'0 0.0
2017-Nov-07 22:55N 35°22' E 139°40'0 0.0
2017-Nov-07 22:28N 35°22' E 139°40'0 0.0
2017-Nov-07 21:58N 35°22' E 139°40'0 0.0
2017-Nov-07 21:28N 35°22' E 139°40'0 0.0
2017-Nov-07 20:58N 35°22' E 139°40'0 0.0
2017-Nov-07 20:28N 35°22' E 139°40'0 0.0
2017-Nov-07 19:58N 35°22' E 139°40'0 0.0
2017-Nov-07 19:28N 35°22' E 139°40'0 0.0
2017-Nov-07 18:58N 35°22' E 139°40'0 0.0
2017-Nov-07 18:28N 35°22' E 139°40'0 0.0
2017-Nov-07 17:58N 35°22' E 139°40'0 0.0
2017-Nov-07 17:28N 35°22' E 139°40'0 0.1
2017-Nov-07 16:58N 35°22' E 139°40'0 0.1
2017-Nov-07 16:25N 35°22' E 139°40'0 0.1
2017-Nov-07 15:58N 35°22' E 139°40'0 0.0
2017-Nov-07 15:19N 35°22' E 139°40'0 0.1
2017-Nov-07 14:58N 35°22' E 139°40'0 0.1
2017-Nov-07 14:28N 35°22' E 139°40'0 0.0
2017-Nov-07 13:58N 35°22' E 139°40'0 0.0
2017-Nov-07 13:28N 35°22' E 139°40'0 0.1
2017-Nov-07 12:55N 35°22' E 139°40'0 0.0
2017-Nov-07 12:28N 35°22' E 139°40'0 0.0
2017-Nov-07 11:58N 35°22' E 139°40'0 0.1
2017-Nov-07 11:22N 35°22' E 139°40'0 0.1
2017-Nov-07 10:58N 35°22' E 139°40'0 0.1
2017-Nov-07 10:28N 35°22' E 139°40'0 0.0
2017-Nov-07 09:58N 35°22' E 139°40'0 0.0
2017-Nov-07 09:28N 35°22' E 139°40'0 0.0
2017-Nov-07 08:58N 35°22' E 139°40'0 0.0
2017-Nov-07 08:28N 35°22' E 139°40'0 0.0
2017-Nov-07 07:58N 35°22' E 139°40'0 0.0
2017-Nov-07 07:28N 35°22' E 139°40'0 0.0
2017-Nov-07 06:52N 35°22' E 139°40'0 0.0
2017-Nov-07 06:28N 35°22' E 139°40'  
Track history (hours):
 
Tides and Currents Weather Stations Pressure Air Temp Water Temp Dewpoint Dewpoint Depression Visibility Wind Speed Wind Dir Waves Ship Positions

Syoanmaru No15

Last reported at 2017-Nov-17 06:05 UTC. Time now 2017-Nov-17 21:19 UTC.
Position N 35°34' E 139°54'.

Length 60 m; draft 4 m.

Type: Tanker. MMSI: 431006926.

Date/timePositionNaut miles runAvg speedWind from/ knotsBaromVisibWave heightAir tempDewpointWater temp
2017-Nov-17 06:05N 35°34' E 139°54'3 9.0
2017-Nov-17 05:42N 35°31' E 139°53'211.8
2017-Nov-17 05:30N 35°29' E 139°52'612.1
2017-Nov-17 05:00N 35°25' E 139°47'612.2
2017-Nov-17 04:30N 35°19' E 139°44'611.8
2017-Nov-17 04:00N 35°13' E 139°47'612.1
2017-Nov-17 03:30N 35°07' E 139°47'611.6
2017-Nov-17 03:00N 35°02' E 139°47'3 4.1
2017-Nov-17 02:22N 35°01' E 139°50'0 0.0
2017-Nov-17 01:58N 35°01' E 139°50'0 0.0
2017-Nov-17 01:28N 35°01' E 139°50'0 0.1
2017-Nov-17 00:58N 35°01' E 139°50'0 0.0
2017-Nov-17 00:28N 35°01' E 139°50'0 0.0
2017-Nov-16 23:58N 35°01' E 139°50'0 0.0
2017-Nov-16 22:52N 35°01' E 139°50'0 0.0
2017-Nov-16 22:16N 35°01' E 139°50'0 0.0
2017-Nov-16 21:52N 35°01' E 139°50'0 0.1
2017-Nov-16 21:28N 35°01' E 139°50'0 0.1
2017-Nov-16 20:40N 35°01' E 139°50'0 0.0
2017-Nov-16 20:28N 35°01' E 139°50'0 0.0
2017-Nov-16 19:58N 35°01' E 139°50'0 0.0
2017-Nov-16 19:22N 35°01' E 139°50'0 0.0
2017-Nov-16 18:58N 35°01' E 139°50'0 0.0
2017-Nov-16 18:28N 35°01' E 139°50'0 0.0
2017-Nov-16 17:58N 35°01' E 139°50'0 0.0
2017-Nov-16 17:16N 35°01' E 139°50'0 0.0
2017-Nov-16 16:52N 35°01' E 139°50'0 0.0
2017-Nov-16 16:28N 35°01' E 139°50'0 0.0
2017-Nov-16 15:58N 35°01' E 139°50'0 0.0
2017-Nov-16 15:28N 35°01' E 139°50'0 0.0
2017-Nov-16 14:40N 35°01' E 139°50'0 0.1
2017-Nov-16 14:10N 35°01' E 139°50'0 0.0
2017-Nov-16 13:58N 35°01' E 139°50'0 0.1
2017-Nov-16 13:16N 35°01' E 139°50'0 0.0
2017-Nov-16 11:52N 35°01' E 139°50'0 0.0
2017-Nov-16 11:16N 35°01' E 139°50'0 1.9
2017-Nov-16 11:00N 35°01' E 139°50'510.7
2017-Nov-16 10:30N 34°60' E 139°43'611.0
2017-Nov-16 09:58N 34°57' E 139°37'  
2017-Nov-12 20:56N 35°05' E 138°41'29 6.5
2017-Nov-12 16:23N 34°46' E 139°09'1911.0
2017-Nov-12 14:39N 34°56' E 139°28'210.7
2017-Nov-12 14:30N 34°57' E 139°30'510.9
2017-Nov-12 14:01N 34°58' E 139°36'611.6
2017-Nov-12 13:31N 34°60' E 139°43'611.7
2017-Nov-12 13:00N 35°01' E 139°50'0 0.4
2017-Nov-12 12:19N 35°01' E 139°50'0 0.0
2017-Nov-12 11:55N 35°01' E 139°50'0 0.0
2017-Nov-12 11:26N 35°01' E 139°50'0 0.0
2017-Nov-12 10:56N 35°01' E 139°50'0 0.0
2017-Nov-12 10:19N 35°01' E 139°50'0 0.0
2017-Nov-12 09:55N 35°01' E 139°50'0 0.0
2017-Nov-12 09:25N 35°01' E 139°50'0 0.0
2017-Nov-12 07:50N 35°01' E 139°50'0 0.0
2017-Nov-12 07:26N 35°01' E 139°50'0 0.0
2017-Nov-12 06:56N 35°01' E 139°50'0 0.0
2017-Nov-12 06:26N 35°01' E 139°50'0 0.1
2017-Nov-12 05:49N 35°01' E 139°50'0 0.1
2017-Nov-12 05:25N 35°01' E 139°50'0 0.0
2017-Nov-12 04:55N 35°01' E 139°50'0 0.1
2017-Nov-12 04:25N 35°01' E 139°50'0 0.0
2017-Nov-12 03:55N 35°01' E 139°50'0 0.0
2017-Nov-12 03:25N 35°01' E 139°50'0 0.0
2017-Nov-12 02:55N 35°01' E 139°50'0 0.0
2017-Nov-12 02:25N 35°01' E 139°50'0 0.0
2017-Nov-12 01:49N 35°01' E 139°50'0 0.0
2017-Nov-12 01:20N 35°01' E 139°50'0 0.0
2017-Nov-12 00:49N 35°01' E 139°50'0 0.0
2017-Nov-12 00:26N 35°01' E 139°50'0 0.0
2017-Nov-11 23:49N 35°01' E 139°50'0 0.0
2017-Nov-11 23:25N 35°01' E 139°50'0 0.1
2017-Nov-11 22:49N 35°01' E 139°51'0 0.1
2017-Nov-11 22:25N 35°01' E 139°50'0 0.1
2017-Nov-11 21:43N 35°01' E 139°51'0 0.0
2017-Nov-11 21:26N 35°01' E 139°51'0 0.0
2017-Nov-11 20:56N 35°01' E 139°51'0 0.0
2017-Nov-11 20:25N 35°01' E 139°51'0 0.0
2017-Nov-11 19:49N 35°01' E 139°51'0 0.0
2017-Nov-11 19:19N 35°01' E 139°51'0 0.0
2017-Nov-11 18:55N 35°01' E 139°51'0 0.0
2017-Nov-11 18:25N 35°01' E 139°51'0 0.0
2017-Nov-11 17:55N 35°01' E 139°51'0 0.0
2017-Nov-11 17:25N 35°01' E 139°51'0 0.1
2017-Nov-11 16:55N 35°01' E 139°50'0 0.1
2017-Nov-11 16:19N 35°01' E 139°51'0 0.1
2017-Nov-11 15:55N 35°01' E 139°50'0 0.1
2017-Nov-11 15:25N 35°01' E 139°51'0 0.0
2017-Nov-11 14:55N 35°01' E 139°51'0 0.0
2017-Nov-11 14:25N 35°01' E 139°51'0 0.1
2017-Nov-11 13:55N 35°01' E 139°50'0 0.0
2017-Nov-11 13:19N 35°01' E 139°50'0 0.0
2017-Nov-11 12:55N 35°01' E 139°50'0 0.0
2017-Nov-11 12:25N 35°01' E 139°50'0 0.0
2017-Nov-11 11:55N 35°01' E 139°50'0 0.0
2017-Nov-11 11:07N 35°01' E 139°50'0 0.0
2017-Nov-11 10:55N 35°01' E 139°50'0 0.0
2017-Nov-11 10:25N 35°01' E 139°50'0 0.0
2017-Nov-11 09:55N 35°01' E 139°50'0 0.0
2017-Nov-11 09:25N 35°01' E 139°50'0 0.0
2017-Nov-11 08:55N 35°01' E 139°50'0 0.5
2017-Nov-11 08:30N 35°01' E 139°50'4 8.9
2017-Nov-11 08:00N 35°04' E 139°47'612.1
2017-Nov-11 07:30N 35°10' E 139°47'611.7
2017-Nov-11 07:00N 35°16' E 139°46'611.8
2017-Nov-11 06:30N 35°21' E 139°42'612.1
2017-Nov-11 06:00N 35°27' E 139°43'3 6.4
2017-Nov-11 05:30N 35°30' E 139°43'0 0.0
2017-Nov-10 10:09N 35°30' E 139°43'0 0.0
2017-Nov-10 03:30N 35°30' E 139°43'1 1.8
2017-Nov-10 03:01N 35°29' E 139°43'4 7.3
2017-Nov-10 02:30N 35°26' E 139°44'2 4.5
2017-Nov-10 01:59N 35°24' E 139°45'0 0.0
2017-Nov-10 01:29N 35°24' E 139°45'0 0.0
2017-Nov-10 00:59N 35°24' E 139°45'0 0.0
2017-Nov-10 00:29N 35°24' E 139°45'0 0.0
2017-Nov-09 23:59N 35°24' E 139°45'0 0.0
2017-Nov-09 23:28N 35°24' E 139°45'0 0.0
2017-Nov-09 22:59N 35°24' E 139°45'0 0.0
2017-Nov-09 22:28N 35°24' E 139°45'0 0.0
2017-Nov-09 21:58N 35°24' E 139°45'0 0.0
2017-Nov-09 21:26N 35°24' E 139°45'0 0.0
2017-Nov-09 20:58N 35°24' E 139°45'0 0.0
2017-Nov-09 20:29N 35°24' E 139°45'0 0.0
2017-Nov-09 19:58N 35°24' E 139°45'0 0.0
2017-Nov-09 19:28N 35°24' E 139°45'0 0.0
2017-Nov-09 18:59N 35°24' E 139°45'0 0.0
2017-Nov-09 18:29N 35°24' E 139°45'0 0.0
2017-Nov-09 17:58N 35°24' E 139°45'0 0.0
2017-Nov-09 17:29N 35°24' E 139°45'0 0.0
2017-Nov-09 16:59N 35°24' E 139°45'0 0.0
2017-Nov-09 16:29N 35°24' E 139°45'0 0.0
2017-Nov-09 15:58N 35°24' E 139°45'0 0.0
2017-Nov-09 15:28N 35°24' E 139°45'0 0.0
2017-Nov-09 14:58N 35°24' E 139°45'0 0.0
2017-Nov-09 14:28N 35°24' E 139°45'0 0.0
2017-Nov-09 13:58N 35°24' E 139°45'0 0.0
2017-Nov-09 13:28N 35°24' E 139°45'0 0.0
2017-Nov-09 12:59N 35°24' E 139°45'0 0.0
2017-Nov-09 12:28N 35°24' E 139°45'0 0.0
2017-Nov-09 11:58N 35°24' E 139°45'0 0.0
2017-Nov-09 11:28N 35°24' E 139°45'0 0.0
2017-Nov-09 10:59N 35°24' E 139°45'0 0.0
2017-Nov-09 10:25N 35°24' E 139°45'0 0.0
2017-Nov-09 09:58N 35°24' E 139°45'0 0.0
2017-Nov-09 09:29N 35°24' E 139°45'0 0.0
2017-Nov-09 08:58N 35°24' E 139°45'0 0.0
2017-Nov-09 08:28N 35°24' E 139°45'0 0.0
2017-Nov-09 08:00N 35°24' E 139°45'0 0.0
2017-Nov-09 07:30N 35°24' E 139°45'0 0.1
2017-Nov-09 07:00N 35°24' E 139°45'1 2.3
2017-Nov-09 06:30N 35°23' E 139°44'5 9.1
2017-Nov-09 06:01N 35°24' E 139°38'0 0.0
2017-Nov-09 05:29N 35°24' E 139°38'0 0.0
2017-Nov-09 04:56N 35°24' E 139°38'0 0.1
2017-Nov-09 04:31N 35°24' E 139°38'2 3.4
2017-Nov-09 04:01N 35°24' E 139°40'2 3.6
2017-Nov-09 03:30N 35°22' E 139°40'0 0.0
2017-Nov-09 03:00N 35°22' E 139°40'0 0.0
2017-Nov-09 02:30N 35°22' E 139°40'0 0.0
2017-Nov-09 02:00N 35°22' E 139°40'0 0.0
2017-Nov-09 01:30N 35°22' E 139°40'0 0.0
2017-Nov-09 01:00N 35°22' E 139°40'0 0.0
2017-Nov-09 00:30N 35°22' E 139°40'0 0.0
2017-Nov-08 23:58N 35°22' E 139°40'0 0.0
2017-Nov-08 23:28N 35°22' E 139°40'0 0.0
2017-Nov-08 22:55N 35°22' E 139°40'0 0.0
2017-Nov-08 22:28N 35°22' E 139°40'0 0.0
2017-Nov-08 21:58N 35°22' E 139°40'0 0.0
2017-Nov-08 21:28N 35°22' E 139°40'0 0.0
2017-Nov-08 20:58N 35°22' E 139°40'0 0.0
2017-Nov-08 20:28N 35°22' E 139°40'0 0.0
2017-Nov-08 19:58N 35°22' E 139°40'0 0.1
2017-Nov-08 19:28N 35°22' E 139°40'0 0.1
2017-Nov-08 18:58N 35°22' E 139°40'0 0.0
2017-Nov-08 18:25N 35°22' E 139°40'0 0.0
2017-Nov-08 17:58N 35°22' E 139°40'0 0.0
2017-Nov-08 17:28N 35°22' E 139°40'0 0.1
2017-Nov-08 16:58N 35°22' E 139°40'0 0.0
2017-Nov-08 16:28N 35°22' E 139°40'0 0.0
2017-Nov-08 15:58N 35°22' E 139°40'0 0.0
2017-Nov-08 15:28N 35°22' E 139°40'0 0.0
2017-Nov-08 14:58N 35°22' E 139°40'0 0.0
2017-Nov-08 14:28N 35°22' E 139°40'0 0.0
2017-Nov-08 13:58N 35°22' E 139°40'0 0.0
2017-Nov-08 13:28N 35°22' E 139°40'0 0.0
2017-Nov-08 12:58N 35°22' E 139°40'0 0.1
2017-Nov-08 12:28N 35°22' E 139°40'0 0.0
2017-Nov-08 11:55N 35°22' E 139°40'0 0.0
2017-Nov-08 11:28N 35°22' E 139°40'0 0.0
2017-Nov-08 10:58N 35°22' E 139°40'0 0.0
2017-Nov-08 10:25N 35°22' E 139°40'0 0.1
2017-Nov-08 09:58N 35°22' E 139°40'0 0.0
2017-Nov-08 09:28N 35°22' E 139°40'0 0.0
2017-Nov-08 08:58N 35°22' E 139°40'0 0.0
2017-Nov-08 08:25N 35°22' E 139°40'0 0.0
2017-Nov-08 07:58N 35°22' E 139°40'0 0.0
2017-Nov-08 07:28N 35°22' E 139°40'0 0.0
2017-Nov-08 06:58N 35°22' E 139°40'0 0.0
2017-Nov-08 06:28N 35°22' E 139°40'0 0.0
2017-Nov-08 05:58N 35°22' E 139°40'0 0.0
2017-Nov-08 05:28N 35°22' E 139°40'0 0.0
2017-Nov-08 04:58N 35°22' E 139°40'0 0.0
2017-Nov-08 04:28N 35°22' E 139°40'0 0.0
2017-Nov-08 03:55N 35°22' E 139°40'0 0.0
2017-Nov-08 03:28N 35°22' E 139°40'0 0.1
2017-Nov-08 02:58N 35°22' E 139°40'0 0.0
2017-Nov-08 02:28N 35°22' E 139°40'0 0.0
2017-Nov-08 01:58N 35°22' E 139°40'0 0.0
2017-Nov-08 01:28N 35°22' E 139°40'0 0.0
2017-Nov-08 00:58N 35°22' E 139°40'0 0.0
2017-Nov-08 00:28N 35°22' E 139°40'0 0.0
2017-Nov-07 23:58N 35°22' E 139°40'0 0.0
2017-Nov-07 23:28N 35°22' E 139°40'0 0.0
2017-Nov-07 22:55N 35°22' E 139°40'0 0.0
2017-Nov-07 22:28N 35°22' E 139°40'0 0.0
2017-Nov-07 21:58N 35°22' E 139°40'0 0.0
2017-Nov-07 21:28N 35°22' E 139°40'0 0.0
2017-Nov-07 20:58N 35°22' E 139°40'0 0.0
2017-Nov-07 20:28N 35°22' E 139°40'0 0.0
2017-Nov-07 19:58N 35°22' E 139°40'0 0.0
2017-Nov-07 19:28N 35°22' E 139°40'0 0.0
2017-Nov-07 18:58N 35°22' E 139°40'0 0.0
2017-Nov-07 18:28N 35°22' E 139°40'0 0.0
2017-Nov-07 17:58N 35°22' E 139°40'0 0.0
2017-Nov-07 17:28N 35°22' E 139°40'0 0.1
2017-Nov-07 16:58N 35°22' E 139°40'0 0.1
2017-Nov-07 16:25N 35°22' E 139°40'0 0.1
2017-Nov-07 15:58N 35°22' E 139°40'0 0.0
2017-Nov-07 15:19N 35°22' E 139°40'0 0.1
2017-Nov-07 14:58N 35°22' E 139°40'0 0.1
2017-Nov-07 14:28N 35°22' E 139°40'0 0.0
2017-Nov-07 13:58N 35°22' E 139°40'0 0.0
2017-Nov-07 13:28N 35°22' E 139°40'0 0.1
2017-Nov-07 12:55N 35°22' E 139°40'0 0.0
2017-Nov-07 12:28N 35°22' E 139°40'0 0.0
2017-Nov-07 11:58N 35°22' E 139°40'0 0.1
2017-Nov-07 11:22N 35°22' E 139°40'0 0.1
2017-Nov-07 10:58N 35°22' E 139°40'0 0.1
2017-Nov-07 10:28N 35°22' E 139°40'0 0.0
2017-Nov-07 09:58N 35°22' E 139°40'0 0.0
2017-Nov-07 09:28N 35°22' E 139°40'0 0.0
2017-Nov-07 08:58N 35°22' E 139°40'0 0.0
2017-Nov-07 08:28N 35°22' E 139°40'0 0.0
2017-Nov-07 07:58N 35°22' E 139°40'0 0.0
2017-Nov-07 07:28N 35°22' E 139°40'0 0.0
2017-Nov-07 06:52N 35°22' E 139°40'0 0.0
2017-Nov-07 06:28N 35°22' E 139°40'  

Dump ship's entire track history